Time;durP1;ratioP1;P1;durP2;ratioP2;P2;SDS_P1;SDS_P2;PMS_P1;PMS_P2;Temp;Humidity;BMP_temperature;BMP_pressure;BME280_temperature;BME280_humidity;BME280_pressure;Samples;Min_cycle;Max_cycle;Signal;HPM_P1;HPM_P2
2022/10/18 00:01:37;;;;;;;19.00;14.63;;;14.10;99.90;;;;;;5119153;28;20068;-89
2022/10/18 00:04:03;;;;;;;43.92;20.15;;;13.70;99.90;;;;;;5119875;27;20043;-87
2022/10/18 00:06:28;;;;;;;31.58;18.83;;;12.90;99.90;;;;;;5095286;27;20047;-84
2022/10/18 00:08:54;;;;;;;22.70;15.40;;;14.50;99.90;;;;;;5124719;27;20503;-84
2022/10/18 00:11:20;;;;;;;21.05;14.90;;;12.80;99.90;;;;;;5137224;27;20043;-84
2022/10/18 00:13:45;;;;;;;30.50;18.08;;;12.80;99.90;;;;;;5115247;28;20027;-86
2022/10/18 00:16:16;;;;;;;19.48;13.80;;;12.80;99.90;;;;;;5114406;27;20121;-84
2022/10/18 00:18:43;;;;;;;24.67;15.85;;;12.80;99.90;;;;;;5107259;27;20043;-85
2022/10/18 00:21:17;;;;;;;17.00;13.05;;;11.40;99.90;;;;;;5120336;27;20026;-86
2022/10/18 00:23:43;;;;;;;43.10;17.77;;;14.50;99.90;;;;;;5135520;27;20043;-85
2022/10/18 00:26:15;;;;;;;19.38;13.57;;;13.50;99.90;;;;;;5103006;27;20066;-85
2022/10/18 00:28:41;;;;;;;28.27;16.52;;;12.70;99.90;;;;;;5091774;27;20391;-86
2022/10/18 00:31:18;;;;;;;22.48;16.05;;;12.80;99.90;;;;;;5118218;27;20489;-84
2022/10/18 00:33:45;;;;;;;23.52;15.98;;;12.70;99.90;;;;;;5134371;27;20565;-85
2022/10/18 00:36:11;;;;;;;20.70;13.77;;;13.10;99.90;;;;;;5141240;27;20034;-83
2022/10/18 00:38:37;;;;;;;41.65;19.23;;;12.70;99.90;;;;;;5104325;27;20054;-85
2022/10/18 00:41:05;;;;;;;28.35;16.10;;;12.70;99.90;;;;;;5140345;27;20051;-85
2022/10/18 00:43:31;;;;;;;25.00;15.60;;;12.70;99.90;;;;;;5126436;27;20114;-86
2022/10/18 00:45:56;;;;;;;33.78;17.25;;;13.70;99.90;;;;;;5135396;27;20165;-84
2022/10/18 00:48:22;;;;;;;27.10;16.95;;;12.70;99.90;;;;;;5104515;27;20126;-84
2022/10/18 00:50:50;;;;;;;21.35;14.88;;;12.70;99.90;;;;;;5122385;27;20047;-85
2022/10/18 00:53:19;;;;;;;21.15;13.88;;;12.70;99.90;;;;;;5125925;27;20074;-84
2022/10/18 00:55:45;;;;;;;22.85;13.77;;;13.70;99.90;;;;;;5127337;27;20053;-84
2022/10/18 00:58:14;;;;;;;14.32;11.88;;;12.70;99.90;;;;;;5114437;27;20044;-84
2022/10/18 01:00:40;;;;;;;20.35;12.93;;;14.20;99.90;;;;;;5121506;27;20047;-88
2022/10/18 01:03:07;;;;;;;15.98;11.35;;;12.70;99.90;;;;;;5120347;27;20031;-85
2022/10/18 01:05:44;;;;;;;13.32;10.75;;;12.70;99.90;;;;;;5127236;27;20475;-85
2022/10/18 01:08:22;;;;;;;15.27;11.77;;;12.70;99.90;;;;;;5127224;27;20386;-84
2022/10/18 01:11:11;;;;;;;14.75;10.40;;;12.70;99.90;;;;;;5113231;27;20039;-84
2022/10/18 01:13:55;;;;;;;19.55;11.48;;;12.70;99.90;;;;;;5128971;27;20094;-87
2022/10/18 01:16:28;;;;;;;17.07;11.47;;;12.70;99.90;;;;;;5101010;27;20059;-83
2022/10/18 01:19:18;;;;;;;19.10;10.80;;;12.90;99.90;;;;;;5117399;27;20044;-84
2022/10/18 01:21:54;;;;;;;17.45;11.23;;;12.60;99.90;;;;;;5102230;27;20048;-85
2022/10/18 01:24:32;;;;;;;15.80;11.02;;;12.60;99.90;;;;;;5116909;27;20086;-85
2022/10/18 01:27:17;;;;;;;14.18;10.43;;;12.50;99.90;;;;;;5121101;27;20077;-85
2022/10/18 01:29:58;;;;;;;23.67;11.85;;;12.50;99.90;;;;;;5098658;27;20047;-85
2022/10/18 01:32:27;;;;;;;17.77;10.82;;;12.50;99.90;;;;;;5106914;27;20101;-84
2022/10/18 01:35:00;;;;;;;17.60;11.65;;;12.50;99.90;;;;;;5103311;27;20116;-85
2022/10/18 01:37:27;;;;;;;18.17;12.63;;;12.40;99.90;;;;;;5102689;27;20076;-87
2022/10/18 01:39:57;;;;;;;19.90;13.23;;;13.20;99.90;;;;;;5121519;27;20094;-90
2022/10/18 01:42:23;;;;;;;27.67;14.52;;;12.50;99.90;;;;;;5118560;27;20050;-91
2022/10/18 01:44:51;;;;;;;29.27;15.15;;;13.30;99.90;;;;;;5098140;27;20035;-86
2022/10/18 01:47:18;;;;;;;33.88;15.35;;;12.50;99.90;;;;;;5120880;27;20060;-84
2022/10/18 01:49:44;;;;;;;40.83;17.83;;;13.10;99.90;;;;;;5117807;27;20086;-86
2022/10/18 01:52:14;;;;;;;28.50;18.13;;;13.70;99.90;;;;;;5119672;27;20081;-85
2022/10/18 01:54:49;;;;;;;31.23;17.75;;;12.50;99.90;;;;;;5104620;27;20067;-85
2022/10/18 01:57:44;;;;;;;199.07;33.08;;;12.50;99.90;;;;;;5126183;27;20046;-85
2022/10/18 02:00:15;;;;;;;40.38;18.98;;;12.50;99.90;;;;;;5109124;27;20046;-86
2022/10/18 02:03:00;;;;;;;22.20;16.25;;;12.60;99.90;;;;;;5121987;27;20646;-85
2022/10/18 02:05:39;;;;;;;58.35;19.73;;;12.60;99.90;;;;;;5124940;27;20043;-87
2022/10/18 02:08:26;;;;;;;54.95;21.95;;;12.60;99.90;;;;;;5128098;27;20038;-86
2022/10/18 02:10:56;;;;;;;35.75;17.00;;;12.60;99.90;;;;;;5122920;27;20397;-86
2022/10/18 02:13:26;;;;;;;27.67;17.33;;;14.10;99.90;;;;;;5114047;27;20131;-85
2022/10/18 02:15:58;;;;;;;37.67;17.58;;;12.70;99.90;;;;;;5122706;27;20434;-84
2022/10/18 02:18:30;;;;;;;28.83;16.48;;;13.80;99.90;;;;;;5099595;27;20047;-85
2022/10/18 02:20:57;;;;;;;47.25;16.95;;;13.50;99.90;;;;;;5118941;27;20039;-85
2022/10/18 02:23:25;;;;;;;201.88;27.08;;;12.60;99.90;;;;;;5098398;27;20038;-84
2022/10/18 02:25:52;;;;;;;18.70;15.98;;;12.70;99.90;;;;;;5123700;27;20035;-88
2022/10/18 02:28:18;;;;;;;93.32;18.40;;;12.70;99.90;;;;;;5124804;27;20047;-85
2022/10/18 02:30:56;;;;;;;107.25;19.95;;;12.90;99.90;;;;;;5090951;28;20054;-84
2022/10/18 02:33:52;;;;;;;18.30;16.08;;;14.30;99.90;;;;;;5112395;27;20050;-83
2022/10/18 02:36:26;;;;;;;31.38;15.73;;;12.90;99.90;;;;;;5047722;28;20041;-84
2022/10/18 02:38:55;;;;;;;90.43;19.30;;;13.70;99.90;;;;;;5065851;28;20070;-84
2022/10/18 02:41:25;;;;;;;60.20;18.20;;;12.70;99.90;;;;;;5058920;28;20048;-85
2022/10/18 02:43:51;;;;;;;307.77;34.67;;;12.70;99.90;;;;;;5044131;28;20404;-84
2022/10/18 02:46:18;;;;;;;140.00;21.13;;;12.70;99.90;;;;;;5066868;28;20047;-85
2022/10/18 02:48:44;;;;;;;80.35;17.10;;;12.80;99.90;;;;;;5071523;28;20052;-83
2022/10/18 02:51:21;;;;;;;38.25;15.75;;;12.70;99.90;;;;;;5079768;28;20040;-84
2022/10/18 02:53:47;;;;;;;15.90;13.95;;;12.60;99.90;;;;;;5084072;28;20040;-87
2022/10/18 02:56:13;;;;;;;18.25;14.65;;;12.60;99.90;;;;;;5064157;28;20047;-84
2022/10/18 02:58:38;;;;;;;22.30;15.85;;;12.80;99.90;;;;;;5085976;28;20047;-83
2022/10/18 03:01:04;;;;;;;41.53;17.52;;;13.50;99.90;;;;;;5077421;28;20094;-84
2022/10/18 03:03:30;;;;;;;28.17;15.48;;;12.70;99.90;;;;;;5059092;28;20048;-87
2022/10/18 03:05:55;;;;;;;279.52;36.00;;;12.60;99.90;;;;;;5077967;28;20154;-87
2022/10/18 03:08:21;;;;;;;110.25;21.58;;;13.30;99.90;;;;;;5075956;28;20032;-83
2022/10/18 03:10:47;;;;;;;93.50;19.02;;;13.40;99.90;;;;;;5077434;28;20123;-84
2022/10/18 03:13:13;;;;;;;165.30;22.35;;;13.50;99.90;;;;;;5078068;28;20067;-84
2022/10/18 03:15:39;;;;;;;80.20;20.98;;;12.60;99.90;;;;;;5077106;28;20476;-85
2022/10/18 03:18:04;;;;;;;63.00;21.77;;;14.10;99.90;;;;;;5080162;28;20036;-85
2022/10/18 03:20:30;;;;;;;102.13;23.95;;;14.20;99.90;;;;;;5087735;28;20130;-85
2022/10/18 03:22:55;;;;;;;101.10;21.38;;;13.60;99.90;;;;;;5056332;28;20067;-87
2022/10/18 03:25:21;;;;;;;136.98;22.15;;;13.00;99.90;;;;;;5082417;28;20032;-84
2022/10/18 03:27:47;;;;;;;97.10;23.17;;;;;;;;;;5086729;28;20048;-85
2022/10/18 03:30:13;;;;;;;88.63;22.73;;;12.50;99.90;;;;;;5077950;28;20048;-85
2022/10/18 03:32:41;;;;;;;42.72;16.60;;;12.50;99.90;;;;;;5061057;28;20071;-90
2022/10/18 03:35:08;;;;;;;127.53;25.88;;;12.60;99.90;;;;;;5083510;28;20075;-87
2022/10/18 03:37:34;;;;;;;47.22;17.17;;;12.50;99.90;;;;;;5068474;28;20048;-84
2022/10/18 03:40:00;;;;;;;43.03;16.95;;;13.50;99.90;;;;;;5068981;28;20511;-85
2022/10/18 03:42:26;;;;;;;98.65;21.33;;;12.30;99.90;;;;;;5064993;28;20128;-84
2022/10/18 03:44:52;;;;;;;103.53;24.17;;;13.70;99.90;;;;;;5083783;28;20468;-84
2022/10/18 03:47:18;;;;;;;106.68;26.20;;;13.80;99.90;;;;;;5082541;28;20647;-83
2022/10/18 03:49:44;;;;;;;136.32;33.45;;;12.50;99.90;;;;;;5086946;28;20059;-82
2022/10/18 03:52:09;;;;;;;68.53;28.08;;;14.00;99.90;;;;;;5073200;28;20052;-82
2022/10/18 03:54:35;;;;;;;165.48;41.35;;;12.50;99.90;;;;;;5085188;28;20441;-82
2022/10/18 03:57:02;;;;;;;218.23;46.83;;;12.40;99.90;;;;;;5066679;28;20437;-83
2022/10/18 03:59:28;;;;;;;232.27;62.42;;;12.40;99.90;;;;;;5065780;28;20051;-84
2022/10/18 04:01:54;;;;;;;126.05;76.10;;;12.40;99.90;;;;;;5084234;28;20040;-84
2022/10/18 04:04:19;;;;;;;529.55;145.15;;;14.00;99.90;;;;;;5087751;28;20036;-83
2022/10/18 04:06:46;;;;;;;269.73;69.65;;;12.40;99.90;;;;;;5078309;28;20047;-86
2022/10/18 04:09:12;;;;;;;34.13;23.98;;;12.30;99.90;;;;;;5080219;28;20435;-85
2022/10/18 04:11:41;;;;;;;112.30;25.98;;;12.90;99.90;;;;;;5066855;28;20040;-85
2022/10/18 04:14:07;;;;;;;111.75;20.58;;;12.30;99.90;;;;;;5086358;28;20051;-85
2022/10/18 04:16:34;;;;;;;90.00;18.20;;;13.60;99.90;;;;;;5091236;28;20391;-86
2022/10/18 04:18:59;;;;;;;38.17;16.08;;;12.30;99.90;;;;;;5092476;28;20073;-90
2022/10/18 04:21:27;;;;;;;109.65;19.48;;;12.20;99.90;;;;;;5094660;28;20047;-91
2022/10/18 04:23:52;;;;;;;43.53;15.90;;;12.20;99.90;;;;;;5074616;28;20483;-86
2022/10/18 04:26:18;;;;;;;164.93;20.10;;;13.40;99.90;;;;;;5091451;28;20054;-90
2022/10/18 04:28:44;;;;;;;183.23;24.48;;;12.70;99.90;;;;;;5074131;28;20047;-90
2022/10/18 04:31:11;;;;;;;136.55;17.27;;;12.90;99.90;;;;;;5091140;28;20051;-85
2022/10/18 04:33:37;;;;;;;169.10;21.65;;;12.20;99.90;;;;;;5089508;28;20047;-84
2022/10/18 04:36:03;;;;;;;84.05;17.45;;;13.00;99.90;;;;;;5071504;28;20044;-83
2022/10/18 04:38:28;;;;;;;196.88;28.63;;;12.10;99.90;;;;;;5080555;28;20051;-82
2022/10/18 04:40:54;;;;;;;139.02;17.40;;;13.30;99.90;;;;;;5083205;28;20155;-84
2022/10/18 04:43:20;;;;;;;128.65;19.23;;;12.10;99.90;;;;;;5091197;28;20044;-84
2022/10/18 04:45:47;;;;;;;85.90;17.02;;;11.80;99.90;;;;;;5074227;28;20047;-86
2022/10/18 04:48:13;;;;;;;17.02;13.90;;;10.80;99.90;;;;;;5067904;28;20480;-84
2022/10/18 04:50:40;;;;;;;75.88;19.15;;;12.00;99.90;;;;;;5091913;28;20055;-86
2022/10/18 04:53:09;;;;;;;24.70;13.30;;;12.00;99.90;;;;;;5073718;28;20040;-87
2022/10/18 04:55:34;;;;;;;134.43;20.40;;;13.70;99.90;;;;;;5089986;28;20483;-83
2022/10/18 04:58:00;;;;;;;167.60;18.45;;;11.80;99.90;;;;;;5073189;28;20046;-84
2022/10/18 05:00:26;;;;;;;53.63;13.73;;;11.90;99.90;;;;;;5091972;28;20036;-83
2022/10/18 05:02:57;;;;;;;100.22;15.32;;;11.90;99.90;;;;;;5090355;28;20052;-83
2022/10/18 05:05:23;;;;;;;113.00;17.38;;;11.90;99.90;;;;;;5073401;28;20071;-85
2022/10/18 05:07:48;;;;;;;219.00;23.08;;;11.90;99.90;;;;;;5091500;28;20492;-85
2022/10/18 05:10:14;;;;;;;98.82;14.23;;;12.70;99.90;;;;;;5081811;28;20036;-86
2022/10/18 05:12:40;;;;;;;59.20;14.88;;;11.80;99.90;;;;;;5066618;28;20040;-86
2022/10/18 05:15:06;;;;;;;136.90;17.25;;;11.70;99.90;;;;;;5069489;28;20189;-86
2022/10/18 05:17:31;;;;;;;134.52;14.95;;;11.80;99.90;;;;;;5073769;28;20048;-86
2022/10/18 05:19:57;;;;;;;79.25;15.15;;;12.70;99.90;;;;;;5088587;28;20035;-89
2022/10/18 05:22:22;;;;;;;13.45;11.60;;;13.00;99.90;;;;;;5088813;28;20498;-86
2022/10/18 05:24:48;;;;;;;55.80;12.77;;;11.70;99.90;;;;;;5083832;28;20731;-84
2022/10/18 05:27:14;;;;;;;24.55;12.10;;;11.70;99.90;;;;;;5081613;28;20189;-84
2022/10/18 05:29:39;;;;;;;44.50;12.10;;;11.70;99.90;;;;;;5065685;28;20468;-84
2022/10/18 05:32:05;;;;;;;81.30;13.60;;;12.90;99.90;;;;;;5084568;28;20070;-83
2022/10/18 05:34:31;;;;;;;75.97;12.07;;;13.30;99.90;;;;;;5072495;28;20131;-84
2022/10/18 05:36:57;;;;;;;98.85;17.13;;;11.60;99.90;;;;;;5086863;28;20047;-83
2022/10/18 05:39:22;;;;;;;14.65;9.80;;;13.10;99.90;;;;;;5084723;28;20136;-84
2022/10/18 05:41:48;;;;;;;32.13;13.25;;;11.50;99.90;;;;;;5085185;28;20509;-85
2022/10/18 05:44:14;;;;;;;12.77;10.13;;;11.60;99.90;;;;;;5088609;28;20418;-83
2022/10/18 05:46:40;;;;;;;52.80;30.05;;;11.50;99.90;;;;;;5066754;28;20032;-87
2022/10/18 05:49:05;;;;;;;89.88;13.68;;;11.50;99.90;;;;;;5069110;28;20093;-84
2022/10/18 05:51:31;;;;;;;53.47;11.77;;;11.50;99.90;;;;;;5083014;28;20048;-85
2022/10/18 05:53:57;;;;;;;19.80;10.65;;;11.50;99.90;;;;;;5088751;28;20488;-83
2022/10/18 05:56:23;;;;;;;143.77;16.23;;;11.50;99.90;;;;;;5064067;28;20053;-85
2022/10/18 05:58:50;;;;;;;157.93;13.13;;;11.50;99.90;;;;;;5086055;28;20043;-89
2022/10/18 06:01:16;;;;;;;19.73;9.88;;;12.50;99.90;;;;;;5079401;28;20055;-86
2022/10/18 06:03:41;;;;;;;17.48;8.48;;;13.10;99.90;;;;;;5078336;28;20036;-86
2022/10/18 06:06:09;;;;;;;27.13;8.90;;;12.80;99.90;;;;;;5079231;28;20303;-85
2022/10/18 06:08:36;;;;;;;10.85;7.68;;;12.10;99.90;;;;;;5054740;28;20113;-85
2022/10/18 06:11:14;;;;;;;14.30;7.68;;;11.40;99.90;;;;;;5054763;28;20059;-89
2022/10/18 06:13:45;;;;;;;8.82;8.13;;;11.40;99.90;;;;;;5059747;28;20039;-88
2022/10/18 06:16:12;;;;;;;13.30;8.23;;;12.80;99.90;;;;;;5060420;28;20048;-89
2022/10/18 06:18:38;;;;;;;91.30;13.02;;;11.60;99.90;;;;;;5078917;28;20119;-86
2022/10/18 06:21:04;;;;;;;61.92;9.75;;;11.30;99.90;;;;;;5077019;28;21866;-82
2022/10/18 06:23:31;;;;;;;34.60;9.13;;;11.20;99.90;;;;;;5077867;28;20055;-82
2022/10/18 06:25:59;;;;;;;6.87;5.07;;;11.10;99.90;;;;;;4357905;28;10021522;-87
2022/10/18 06:28:25;;;;;;;26.20;8.27;;;12.10;99.90;;;;;;5082196;28;20302;-86
2022/10/18 06:30:50;;;;;;;16.70;8.18;;;11.00;99.90;;;;;;5082272;28;20043;-85
2022/10/18 06:33:16;;;;;;;28.70;8.13;;;11.80;99.90;;;;;;5080252;28;20048;-86
2022/10/18 06:35:42;;;;;;;36.15;9.05;;;11.00;99.90;;;;;;5061490;28;20403;-86
2022/10/18 06:38:07;;;;;;;91.22;10.20;;;12.50;99.90;;;;;;5066138;28;20449;-85
2022/10/18 06:40:36;;;;;;;113.55;10.43;;;11.60;99.90;;;;;;5066789;28;20465;-85
2022/10/18 06:43:07;;;;;;;92.93;8.55;;;12.50;99.90;;;;;;5085802;28;20044;-86
2022/10/18 06:45:33;;;;;;;185.55;12.88;;;10.80;99.90;;;;;;5084336;28;20044;-84
2022/10/18 06:48:00;;;;;;;167.82;11.15;;;12.50;99.90;;;;;;5058315;28;20056;-87
2022/10/18 06:50:26;;;;;;;154.45;11.25;;;10.60;99.90;;;;;;5076792;28;20296;-85
2022/10/18 06:52:52;;;;;;;172.70;11.90;;;11.90;99.90;;;;;;5060034;28;20543;-85
2022/10/18 06:55:17;;;;;;;85.57;9.55;;;10.70;99.90;;;;;;5070881;28;20085;-88
2022/10/18 06:57:43;;;;;;;6.63;6.13;;;12.40;99.90;;;;;;5078437;28;20089;-88
2022/10/18 07:00:09;;;;;;;50.35;9.35;;;12.00;99.90;;;;;;5082372;28;20032;-91
2022/10/18 07:02:36;;;;;;;8.38;6.90;;;9.40;99.90;;;;;;5075979;28;20036;-88
2022/10/18 07:05:02;;;;;;;66.28;8.57;;;12.50;99.90;;;;;;5078192;28;20832;-88
2022/10/18 07:07:30;;;;;;;54.03;8.15;;;10.60;99.90;;;;;;5080741;28;20145;-91
2022/10/18 07:09:55;;;;;;;51.92;8.57;;;10.50;99.90;;;;;;5075709;28;20063;-86
2022/10/18 07:12:21;;;;;;;38.67;8.57;;;10.40;99.90;;;;;;5064387;28;20044;-87
2022/10/18 07:14:47;;;;;;;7.28;6.45;;;11.50;99.90;;;;;;5069835;28;20548;-88
2022/10/18 07:17:12;;;;;;;20.15;6.90;;;10.40;99.90;;;;;;5066175;28;20051;-86
2022/10/18 07:19:38;;;;;;;6.80;6.30;;;10.40;99.90;;;;;;5084336;28;20080;-86
2022/10/18 07:22:04;;;;;;;33.28;7.35;;;10.40;99.90;;;;;;5082880;28;20051;-87
2022/10/18 07:24:29;;;;;;;17.92;6.18;;;10.50;99.90;;;;;;5068946;28;20258;-87
2022/10/18 07:26:55;;;;;;;18.08;6.30;;;10.50;99.90;;;;;;5087061;28;20468;-86
2022/10/18 07:29:20;;;;;;;53.03;7.47;;;10.50;99.90;;;;;;5087984;28;20492;-86
2022/10/18 07:31:46;;;;;;;56.25;6.72;;;12.30;99.90;;;;;;5069477;28;20050;-85
2022/10/18 07:34:12;;;;;;;20.35;6.65;;;11.90;99.90;;;;;;5048385;28;20555;-88
2022/10/18 07:36:39;;;;;;;76.70;7.53;;;11.60;99.90;;;;;;5086591;28;20047;-89
2022/10/18 07:39:05;;;;;;;51.15;6.65;;;10.40;99.90;;;;;;5063852;28;20043;-87
2022/10/18 07:41:32;;;;;;;11.73;5.95;;;10.40;99.90;;;;;;5081817;28;20040;-88
2022/10/18 07:43:59;;;;;;;8.68;5.90;;;10.20;99.90;;;;;;5069440;28;20042;-89
2022/10/18 07:46:28;;;;;;;30.92;6.65;;;10.30;99.90;;;;;;5082964;28;20518;-88
2022/10/18 07:51:36;;;;;;;6.82;5.85;;;10.40;99.90;;;;;;5017128;28;20045;-76
2022/10/18 07:54:02;;;;;;;10.38;6.18;;;10.40;99.90;;;;;;5026363;28;20049;-76
2022/10/18 07:56:28;;;;;;;33.92;6.90;;;10.50;99.90;;;;;;5024027;28;20046;-75
2022/10/18 07:58:55;;;;;;;18.75;7.22;;;10.50;99.90;;;;;;5026031;28;20041;-77
2022/10/18 08:01:22;;;;;;;44.65;8.93;;;11.30;99.90;;;;;;5011287;28;20473;-76
2022/10/18 08:03:48;;;;;;;33.67;8.15;;;10.50;99.90;;;;;;5009014;28;20041;-77
2022/10/18 08:06:17;;;;;;;21.00;7.13;;;12.30;99.90;;;;;;5010383;28;20041;-77
2022/10/18 08:08:43;;;;;;;7.22;5.82;;;10.50;99.90;;;;;;5012220;28;20069;-76
2022/10/18 08:11:11;;;;;;;10.25;7.60;;;10.50;99.90;;;;;;4992528;28;20042;-76
2022/10/18 08:13:38;;;;;;;13.98;8.73;;;10.50;99.90;;;;;;4992332;28;20468;-76
2022/10/18 08:16:06;;;;;;;13.68;8.25;;;10.60;99.90;;;;;;5012058;28;20099;-77
2022/10/18 08:18:32;;;;;;;11.18;8.85;;;10.70;99.90;;;;;;5011516;28;20038;-75
2022/10/18 08:21:00;;;;;;;11.23;7.38;;;11.90;99.90;;;;;;5029718;28;20041;-76
2022/10/18 08:23:25;;;;;;;12.18;7.65;;;12.10;99.90;;;;;;4989417;28;20041;-77
2022/10/18 08:25:51;;;;;;;11.18;8.55;;;12.30;99.90;;;;;;5008603;28;20128;-76
2022/10/18 08:28:17;;;;;;;17.27;9.05;;;10.80;99.90;;;;;;4994186;28;20037;-76
2022/10/18 08:30:43;;;;;;;13.68;8.35;;;10.50;99.90;;;;;;5027871;28;20120;-76
2022/10/18 08:33:09;;;;;;;16.00;9.27;;;10.90;99.90;;;;;;4993138;28;20077;-77
2022/10/18 08:35:34;;;;;;;13.18;8.35;;;10.90;99.90;;;;;;5009629;28;20108;-77
2022/10/18 08:38:00;;;;;;;13.30;7.68;;;11.10;99.90;;;;;;5006389;28;20091;-77
2022/10/18 08:40:26;;;;;;;12.57;8.93;;;11.10;99.90;;;;;;5026797;28;20038;-77
2022/10/18 08:43:16;;;;;;;16.40;8.07;;;12.40;99.90;;;;;;5010240;28;20132;-77
2022/10/18 08:45:43;;;;;;;12.48;8.32;;;11.20;99.90;;;;;;4993977;28;20052;-77
2022/10/18 08:48:27;;;;;;;15.88;7.90;;;11.30;99.90;;;;;;5010692;28;20451;-76
2022/10/18 08:50:55;;;;;;;13.23;7.60;;;12.80;99.90;;;;;;5005956;28;20200;-77
2022/10/18 08:53:47;;;;;;;13.82;7.30;;;11.50;99.90;;;;;;4992658;28;20071;-77
2022/10/18 08:56:14;;;;;;;12.38;7.90;;;12.60;99.90;;;;;;4988409;28;20049;-77
2022/10/18 08:58:43;;;;;;;15.10;8.52;;;13.10;99.90;;;;;;5009497;28;20409;-77
2022/10/18 09:01:11;;;;;;;14.73;7.25;;;12.60;99.90;;;;;;5028375;28;20053;-78
2022/10/18 09:04:02;;;;;;;15.00;8.48;;;11.90;99.90;;;;;;5013314;28;20037;-76
2022/10/18 09:06:33;;;;;;;15.50;8.32;;;12.00;99.90;;;;;;5030099;28;20080;-78
2022/10/18 09:09:36;;;;;;;16.15;7.55;;;12.10;99.90;;;;;;4992899;28;20073;-77
2022/10/18 09:12:38;;;;;;;16.45;6.75;;;12.20;99.90;;;;;;4993635;28;20057;-77
2022/10/18 09:15:44;;;;;;;14.63;6.68;;;12.30;99.90;;;;;;4996381;28;20046;-77
2022/10/18 09:18:16;;;;;;;13.30;5.65;;;12.40;99.90;;;;;;5020755;28;20037;-77
2022/10/18 09:20:53;;;;;;;14.63;4.65;;;12.50;99.90;;;;;;5013294;28;20037;-76
2022/10/18 09:23:46;;;;;;;14.57;4.60;;;12.60;99.90;;;;;;5011370;28;20481;-76
2022/10/18 09:26:19;;;;;;;12.35;4.07;;;12.70;99.90;;;;;;5004413;28;20041;-77
2022/10/18 09:28:56;;;;;;;17.30;4.43;;;12.80;99.90;;;;;;5008387;28;20052;-77
2022/10/18 09:31:46;;;;;;;16.20;3.65;;;12.90;99.90;;;;;;5030316;28;20041;-78
2022/10/18 09:34:31;;;;;;;16.90;4.03;;;13.00;99.90;;;;;;5009753;28;20400;-78
2022/10/18 09:36:57;;;;;;;;;;;13.10;99.90;;;;;;5028656;28;20042;-78
2022/10/18 09:39:29;;;;;;;12.23;4.05;;;13.10;99.90;;;;;;4998613;28;19944;-78
2022/10/18 09:42:00;;;;;;;18.55;4.30;;;13.20;99.90;;;;;;5012690;28;20051;-78
2022/10/18 09:44:32;;;;;;;19.52;4.57;;;13.30;99.90;;;;;;5030270;28;20038;-78
2022/10/18 09:47:11;;;;;;;12.85;3.20;;;13.30;99.90;;;;;;4997830;28;20534;-78
2022/10/18 09:49:41;;;;;;;13.35;3.65;;;13.40;99.90;;;;;;5013672;28;20435;-78
2022/10/18 09:52:15;;;;;;;18.00;4.15;;;13.50;99.90;;;;;;5012656;28;20120;-78
2022/10/18 09:54:49;;;;;;;14.02;2.80;;;13.60;99.90;;;;;;4997978;28;20038;-78
2022/10/18 09:57:25;;;;;;;16.83;3.08;;;13.60;99.90;;;;;;5031175;28;20042;-78
2022/10/18 09:59:50;;;;;;;15.60;2.20;;;13.70;99.90;;;;;;5013257;28;20042;-78
2022/10/18 10:02:22;;;;;;;18.20;2.85;;;13.80;99.90;;;;;;5012163;28;20044;-82
2022/10/18 10:04:50;;;;;;;22.77;4.15;;;13.90;99.90;;;;;;4994185;28;20407;-81
2022/10/18 10:07:22;;;;;;;16.33;2.50;;;13.90;99.90;;;;;;4997161;28;20041;-81
2022/10/18 10:09:57;;;;;;;18.90;2.10;;;14.60;99.90;;;;;;4994020;28;20435;-82
2022/10/18 10:12:31;;;;;;;9.60;2.05;;;15.60;99.90;;;;;;4994210;28;20061;-83
2022/10/18 10:15:26;;;;;;;17.13;2.90;;;14.20;99.90;;;;;;4997048;28;20384;-83
2022/10/18 10:18:05;;;;;;;20.17;2.33;;;15.10;99.90;;;;;;5015969;28;20296;-83
2022/10/18 10:20:47;;;;;;;11.75;1.60;;;14.90;99.90;;;;;;5030132;28;20034;-83
2022/10/18 10:23:19;;;;;;;14.52;2.42;;;14.30;99.90;;;;;;5030992;28;20045;-84
2022/10/18 10:25:54;;;;;;;13.63;2.45;;;14.40;99.90;;;;;;5012982;28;20053;-84
2022/10/18 10:28:22;;;;;;;20.45;2.10;;;14.40;99.90;;;;;;4997216;28;20391;-84
2022/10/18 10:30:48;;;;;;;14.43;2.80;;;15.80;99.90;;;;;;5029614;28;20086;-83
2022/10/18 10:33:32;;;;;;;10.52;1.58;;;14.90;99.90;;;;;;5012187;28;20042;-82
2022/10/18 10:36:00;;;;;;;11.10;2.10;;;15.80;99.90;;;;;;5011586;28;20527;-83
2022/10/18 10:38:28;;;;;;;12.82;2.00;;;15.80;99.90;;;;;;5006580;28;20052;-83
2022/10/18 10:40:54;;;;;;;12.32;1.85;;;15.10;99.90;;;;;;5028929;28;20480;-83
2022/10/18 10:43:28;;;;;;;10.98;1.63;;;14.60;99.90;;;;;;5031226;28;20051;-81
2022/10/18 10:46:01;;;;;;;10.23;1.80;;;14.80;99.90;;;;;;5027704;28;20060;-83
2022/10/18 10:48:32;;;;;;;13.88;2.35;;;16.50;99.90;;;;;;5029200;28;20048;-83
2022/10/18 10:51:07;;;;;;;12.73;1.65;;;14.90;99.90;;;;;;5010643;28;20057;-82
2022/10/18 10:53:40;;;;;;;11.32;1.75;;;15.00;99.90;;;;;;5005059;28;20132;-83
2022/10/18 10:56:14;;;;;;;14.52;1.55;;;16.30;99.90;;;;;;4999709;28;20076;-84
2022/10/18 10:59:09;;;;;;;12.48;1.85;;;16.30;99.90;;;;;;4996216;28;20041;-84
2022/10/18 11:01:36;;;;;;;11.30;1.52;;;15.00;99.90;;;;;;5006142;28;20054;-83
2022/10/18 11:04:27;;;;;;;12.48;1.85;;;15.90;99.90;;;;;;4996949;28;20092;-87
2022/10/18 11:07:09;;;;;;;10.40;1.63;;;14.90;99.90;;;;;;4991849;28;20042;-84
2022/10/18 11:09:57;;;;;;;12.30;1.73;;;14.90;99.90;;;;;;5009399;28;20113;-87
2022/10/18 11:12:52;;;;;;;13.00;1.73;;;15.00;99.90;;;;;;4995035;28;20076;-85
2022/10/18 11:15:53;;;;;;;6.80;1.05;;;14.70;99.90;;;;;;5009428;28;20041;-83
2022/10/18 11:18:33;;;;;;;11.90;1.70;;;14.60;99.90;;;;;;4979530;28;20053;-79
2022/10/18 11:21:07;;;;;;;9.40;1.98;;;14.60;99.90;;;;;;4990348;28;20520;-87
2022/10/18 11:23:38;;;;;;;15.30;2.08;;;14.60;99.90;;;;;;5008579;28;20049;-80
2022/10/18 11:26:27;;;;;;;10.00;1.38;;;14.60;99.90;;;;;;5011405;28;20656;-81
2022/10/18 11:29:15;;;;;;;14.15;2.03;;;14.70;99.90;;;;;;4993405;28;20034;-82
2022/10/18 11:31:57;;;;;;;12.93;1.98;;;14.80;99.90;;;;;;5000412;28;20506;-81
2022/10/18 11:34:54;;;;;;;9.77;1.33;;;15.00;99.90;;;;;;4991045;28;20034;-86
2022/10/18 11:37:32;;;;;;;11.43;1.70;;;15.20;99.90;;;;;;5005830;28;20045;-83
2022/10/18 11:40:07;;;;;;;12.88;2.15;;;15.50;99.90;;;;;;5010966;28;20148;-82
2022/10/18 11:42:44;;;;;;;10.77;1.88;;;17.00;99.90;;;;;;4991815;28;20128;-84
2022/10/18 11:45:09;;;;;;;14.13;1.75;;;15.60;99.90;;;;;;4976451;28;20389;-84
2022/10/18 11:47:51;;;;;;;13.57;2.22;;;16.00;99.90;;;;;;5024112;28;20040;-84
2022/10/18 11:50:25;;;;;;;7.78;1.25;;;16.80;99.90;;;;;;4990551;28;20680;-83
2022/10/18 11:53:14;;;;;;;10.70;1.67;;;16.40;99.90;;;;;;5007607;28;20481;-82
2022/10/18 11:56:18;;;;;;;9.45;1.77;;;15.90;99.90;;;;;;5028608;28;20042;-82
2022/10/18 11:59:03;;;;;;;9.30;2.00;;;16.00;99.90;;;;;;4993822;28;20341;-84
2022/10/18 12:01:39;;;;;;;13.90;1.65;;;16.10;99.90;;;;;;4987928;28;20053;-83
2022/10/18 12:04:26;;;;;;;13.95;2.35;;;16.10;99.90;;;;;;4995322;28;20041;-83
2022/10/18 12:06:55;;;;;;;7.72;1.30;;;15.90;99.90;;;;;;5010167;28;20041;-83
2022/10/18 12:09:36;;;;;;;16.02;2.10;;;15.80;99.90;;;;;;5008776;28;20057;-84
2022/10/18 12:12:25;;;;;;;7.80;1.35;;;15.80;99.90;;;;;;5027201;28;20037;-83
2022/10/18 12:15:18;;;;;;;6.63;1.95;;;16.90;99.90;;;;;;5010082;28;20037;-85
2022/10/18 12:17:47;;;;;;;12.55;2.30;;;16.10;99.90;;;;;;4964628;28;20045;-85
2022/10/18 12:20:36;;;;;;;13.77;2.40;;;17.50;99.90;;;;;;5005606;28;20049;-84
2022/10/18 12:23:22;;;;;;;13.90;2.67;;;16.10;99.90;;;;;;4990459;28;20056;-84
2022/10/18 12:25:54;;;;;;;11.50;2.35;;;16.00;99.90;;;;;;5026250;28;20045;-85
2022/10/18 12:28:38;;;;;;;11.18;2.00;;;15.90;99.90;;;;;;5028369;28;20045;-83
2022/10/18 12:31:36;;;;;;;7.07;1.35;;;15.80;99.90;;;;;;5010243;28;20053;-84
2022/10/18 12:34:28;;;;;;;20.58;2.08;;;15.80;99.90;;;;;;5012472;28;20057;-84
2022/10/18 12:37:23;;;;;;;15.00;2.10;;;15.90;99.90;;;;;;5024723;28;20147;-84
2022/10/18 12:39:56;;;;;;;9.85;1.38;;;16.00;99.90;;;;;;4997382;28;20061;-83
2022/10/18 12:42:25;;;;;;;10.52;2.38;;;16.70;99.90;;;;;;5033221;28;20084;-83
2022/10/18 12:45:11;;;;;;;7.93;1.35;;;17.30;99.90;;;;;;5014994;28;20042;-83
2022/10/18 12:47:37;;;;;;;11.30;2.38;;;16.20;99.90;;;;;;5012359;28;20044;-85
2022/10/18 12:50:21;;;;;;;9.60;1.80;;;15.50;99.90;;;;;;5033423;28;20049;-84
2022/10/18 12:53:15;;;;;;;10.68;1.40;;;16.00;99.90;;;;;;5009835;28;20057;-85
2022/10/18 12:55:43;;;;;;;9.23;1.67;;;15.80;99.90;;;;;;5032994;28;20067;-83